createdAt,value
2023-02-12T00:00:52.926Z,18.92
2023-02-12T00:05:55.541Z,20.65
2023-02-12T00:10:57.112Z,20.35
2023-02-12T00:15:58.803Z,21.00
2023-02-12T00:21:01.265Z,18.73
2023-02-12T00:26:11.203Z,20.83
2023-02-12T00:31:18.618Z,21.77
2023-02-12T00:36:22.679Z,19.60
2023-02-12T00:41:25.102Z,19.52
2023-02-12T00:46:26.641Z,20.63
2023-02-12T00:51:28.009Z,21.40
2023-02-12T00:56:29.339Z,20.95
2023-02-12T01:01:30.821Z,19.88
2023-02-12T01:06:32.221Z,19.38
2023-02-12T01:11:33.580Z,21.23
2023-02-12T01:16:36.555Z,19.85
2023-02-12T01:21:38.194Z,21.17
2023-02-12T01:26:39.600Z,19.60
2023-02-12T01:31:42.274Z,20.00
2023-02-12T01:36:43.803Z,19.25
2023-02-12T01:41:45.763Z,19.98
2023-02-12T01:46:59.044Z,20.15
2023-02-12T01:52:15.700Z,19.98
2023-02-12T01:57:18.197Z,20.38
2023-02-12T02:02:19.731Z,19.75
2023-02-12T02:07:21.085Z,21.27
2023-02-12T02:12:41.348Z,19.48
2023-02-12T02:17:58.188Z,18.75
2023-02-12T02:23:17.699Z,20.08
2023-02-12T02:28:42.563Z,21.92
2023-02-12T02:33:56.404Z,20.15
2023-02-12T02:39:15.809Z,22.55
2023-02-12T02:44:23.355Z,22.60
2023-02-12T02:49:34.568Z,23.60
2023-02-12T02:54:47.537Z,21.05
2023-02-12T03:00:03.972Z,21.63
2023-02-12T03:05:26.693Z,21.85
2023-02-12T03:10:36.617Z,23.25
2023-02-12T03:15:44.576Z,21.92
2023-02-12T03:20:51.513Z,22.27
2023-02-12T03:25:58.731Z,21.20
2023-02-12T03:31:29.370Z,21.17
2023-02-12T03:36:41.286Z,20.55
2023-02-12T03:42:07.418Z,21.02
2023-02-12T03:47:20.717Z,20.77
2023-02-12T03:52:22.380Z,21.15
2023-02-12T03:57:30.593Z,20.67
2023-02-12T04:02:32.383Z,19.83
2023-02-12T04:07:36.731Z,20.98
2023-02-12T04:12:43.868Z,18.90
2023-02-12T04:18:02.584Z,19.88
2023-02-12T04:23:29.851Z,19.02
2023-02-12T04:28:42.920Z,19.50
2023-02-12T04:34:03.744Z,19.25
2023-02-12T04:39:11.163Z,20.95
2023-02-12T04:44:23.670Z,20.38
2023-02-12T04:49:25.545Z,20.60
2023-02-12T04:54:26.958Z,20.23
2023-02-12T04:59:28.412Z,20.70
2023-02-12T05:04:29.743Z,19.27
2023-02-12T05:09:31.090Z,20.80
2023-02-12T05:14:32.421Z,21.33
2023-02-12T05:19:33.767Z,19.25
2023-02-12T05:24:35.181Z,20.27
2023-02-12T05:29:36.694Z,20.73
2023-02-12T05:34:38.166Z,19.67
2023-02-12T05:39:39.610Z,20.77
2023-02-12T05:44:40.946Z,19.85
2023-02-12T05:49:42.817Z,20.02
2023-02-12T05:54:44.211Z,19.15
2023-02-12T05:59:45.608Z,21.17
2023-02-12T06:04:48.597Z,20.67
2023-02-12T06:09:50.607Z,20.27
2023-02-12T06:14:51.966Z,19.35
2023-02-12T06:19:53.269Z,20.00
2023-02-12T06:24:54.618Z,19.52
2023-02-12T06:29:55.963Z,18.83
2023-02-12T06:34:57.335Z,20.27
2023-02-12T06:39:58.677Z,18.83
2023-02-12T06:45:00.008Z,21.85
2023-02-12T06:50:01.410Z,19.33
2023-02-12T06:55:02.848Z,19.25
2023-02-12T07:00:04.945Z,20.60
2023-02-12T07:05:06.554Z,22.42
2023-02-12T07:10:08.700Z,22.55
2023-02-12T07:15:11.019Z,22.45
2023-02-12T07:20:12.826Z,22.23
2023-02-12T07:25:14.486Z,23.27
2023-02-12T07:30:16.033Z,23.52
2023-02-12T07:35:17.437Z,24.15
2023-02-12T07:40:18.839Z,25.13
2023-02-12T07:45:20.177Z,22.83
2023-02-12T07:50:21.683Z,25.20
2023-02-12T07:55:23.089Z,24.35
2023-02-12T08:00:24.604Z,24.65
2023-02-12T08:05:27.800Z,25.08
2023-02-12T08:10:32.271Z,24.67
2023-02-12T08:15:33.777Z,26.00
2023-02-12T08:20:35.151Z,26.17
2023-02-12T08:25:36.542Z,24.63
2023-02-12T08:30:37.987Z,24.80
2023-02-12T08:35:39.350Z,24.50
2023-02-12T08:40:43.015Z,25.65
2023-02-12T08:45:44.518Z,23.77
2023-02-12T08:50:46.554Z,27.25
2023-02-12T08:55:49.704Z,27.63
2023-02-12T09:00:51.160Z,26.05
2023-02-12T09:05:53.024Z,25.42
2023-02-12T09:10:54.445Z,24.88
2023-02-12T09:15:56.332Z,22.92
2023-02-12T09:21:07.453Z,24.40
2023-02-12T09:26:11.816Z,26.60
2023-02-12T09:31:15.717Z,26.80
2023-02-12T09:36:17.445Z,25.02
2023-02-12T09:41:46.518Z,26.23
2023-02-12T09:46:59.979Z,27.52
2023-02-12T09:52:02.832Z,25.75
2023-02-12T09:57:14.189Z,26.88
2023-02-12T10:02:17.865Z,27.70
2023-02-12T10:07:47.077Z,28.45
2023-02-12T10:12:57.634Z,28.88
2023-02-12T10:18:20.104Z,29.35
2023-02-12T10:23:59.700Z,28.20
2023-02-12T10:29:36.950Z,30.33
2023-02-12T10:34:41.212Z,28.55
2023-02-12T10:39:48.775Z,29.05
2023-02-12T10:49:59.743Z,27.30
2023-02-12T10:55:01.615Z,31.20
2023-02-12T11:00:26.927Z,28.50
2023-02-12T11:05:30.922Z,26.83
2023-02-12T11:10:38.571Z,28.08
2023-02-12T11:15:48.742Z,27.08
2023-02-12T11:20:52.565Z,25.95
2023-02-12T11:26:00.248Z,27.88
2023-02-12T11:31:23.831Z,28.02
2023-02-12T11:36:27.514Z,28.88
2023-02-12T11:41:39.548Z,27.13
2023-02-12T11:46:49.710Z,27.88
2023-02-12T11:51:51.868Z,26.83
2023-02-12T11:56:55.282Z,27.48
2023-02-12T12:02:01.598Z,29.10
2023-02-12T12:07:13.857Z,26.40
2023-02-12T12:12:53.049Z,25.45
2023-02-12T12:18:17.554Z,25.75
2023-02-12T12:23:24.018Z,24.35
2023-02-12T12:28:41.260Z,23.08
2023-02-12T12:34:03.341Z,22.38
2023-02-12T12:39:21.409Z,21.73
2023-02-12T12:44:35.531Z,20.67
2023-02-12T12:50:08.470Z,20.17
2023-02-12T12:55:31.664Z,22.88
2023-02-12T13:00:33.035Z,22.10
2023-02-12T13:05:53.443Z,19.10
2023-02-12T13:11:06.379Z,18.02
2023-02-12T13:16:16.634Z,18.45
2023-02-12T13:21:27.147Z,18.60
2023-02-12T13:26:42.814Z,17.38
2023-02-12T13:31:58.033Z,16.63
2023-02-12T13:37:06.619Z,15.20
2023-02-12T13:42:07.969Z,13.48
2023-02-12T13:47:48.087Z,13.23
2023-02-12T13:52:59.597Z,13.20
2023-02-12T13:58:34.883Z,13.15
2023-02-12T14:03:38.000Z,12.90
2023-02-12T14:08:42.387Z,12.52
2023-02-12T14:13:56.348Z,12.55
2023-02-12T14:19:35.460Z,10.43
2023-02-12T14:24:36.797Z,11.27
2023-02-12T14:29:38.146Z,12.27
2023-02-12T14:34:39.589Z,12.40
2023-02-12T14:39:41.108Z,12.98
2023-02-12T14:44:46.792Z,10.07
2023-02-12T14:49:55.636Z,7.80
2023-02-12T14:55:18.158Z,7.00
2023-02-12T15:00:32.294Z,8.35
2023-02-12T15:05:41.523Z,8.27
2023-02-12T15:10:49.740Z,8.85
2023-02-12T15:16:22.049Z,6.30
2023-02-12T15:21:27.850Z,5.95
2023-02-12T15:26:33.284Z,6.63
2023-02-12T15:31:35.301Z,6.10
2023-02-12T15:36:37.983Z,7.70
2023-02-12T15:41:40.361Z,9.55
2023-02-12T15:46:53.502Z,10.32
2023-02-12T15:51:56.429Z,10.07
2023-02-12T15:56:58.197Z,10.10
2023-02-12T16:02:03.278Z,10.55
2023-02-12T16:07:04.790Z,10.80
2023-02-12T16:12:12.170Z,9.45
2023-02-12T16:17:21.176Z,8.90
2023-02-12T16:22:27.321Z,9.77
2023-02-12T16:27:31.500Z,10.25
2023-02-12T16:32:38.920Z,8.68
2023-02-12T16:37:44.018Z,8.32
2023-02-12T16:42:48.454Z,8.93
2023-02-12T16:47:51.161Z,9.40
2023-02-12T16:53:03.281Z,8.95
2023-02-12T16:58:04.631Z,11.38
2023-02-12T17:03:06.037Z,11.98
2023-02-12T17:08:16.030Z,10.40
2023-02-12T17:13:18.107Z,9.80
2023-02-12T17:18:20.314Z,9.63
2023-02-12T17:23:22.794Z,9.07
2023-02-12T17:28:25.345Z,8.90
2023-02-12T17:33:27.613Z,9.75
2023-02-12T17:38:29.019Z,8.45
2023-02-12T17:43:30.344Z,9.90
2023-02-12T17:48:31.848Z,8.70
2023-02-12T17:53:33.180Z,8.63
2023-02-12T17:58:34.537Z,7.80
2023-02-12T18:03:36.355Z,8.23
2023-02-12T18:08:37.696Z,8.35
2023-02-12T18:13:39.466Z,8.30
2023-02-12T18:18:40.988Z,7.30
2023-02-12T18:23:42.973Z,6.78
2023-02-12T18:28:45.243Z,5.80
2023-02-12T18:33:46.703Z,5.65
2023-02-12T18:38:49.765Z,4.93
2023-02-12T18:43:51.618Z,4.05
2023-02-12T18:48:53.857Z,5.10
2023-02-12T18:54:05.272Z,5.07
2023-02-12T18:59:08.106Z,4.85
2023-02-12T19:04:12.637Z,5.72
2023-02-12T19:09:16.589Z,6.65
2023-02-12T19:14:19.480Z,5.70
2023-02-12T19:19:21.644Z,7.18
2023-02-12T19:24:23.100Z,5.55
2023-02-12T19:29:24.777Z,6.70
2023-02-12T19:34:27.149Z,6.40
2023-02-12T19:39:28.752Z,6.65
2023-02-12T19:44:30.093Z,6.38
2023-02-12T19:49:31.517Z,6.50
2023-02-12T19:54:32.964Z,6.50
2023-02-12T19:59:35.347Z,6.97
2023-02-12T20:04:36.849Z,6.65
2023-02-12T20:09:38.493Z,5.55
2023-02-12T20:14:39.812Z,6.50
2023-02-12T20:19:41.147Z,5.43
2023-02-12T20:24:42.565Z,5.95
2023-02-12T20:29:43.961Z,5.40
2023-02-12T20:34:50.827Z,6.63
2023-02-12T20:39:52.628Z,6.72
2023-02-12T20:44:53.999Z,5.63
2023-02-12T20:49:56.683Z,5.88
2023-02-12T20:54:58.262Z,5.70
2023-02-12T20:59:59.603Z,6.68
2023-02-12T21:05:00.967Z,6.60
2023-02-12T21:10:02.291Z,5.90
2023-02-12T21:15:03.929Z,6.20
2023-02-12T21:20:07.083Z,6.15
2023-02-12T21:25:08.450Z,6.20
2023-02-12T21:30:10.137Z,5.88
2023-02-12T21:35:11.606Z,6.80
2023-02-12T21:40:13.115Z,8.63
2023-02-12T21:45:19.038Z,7.05
2023-02-12T21:50:20.946Z,7.10
2023-02-12T21:55:22.322Z,6.47
2023-02-12T22:00:23.743Z,7.32
2023-02-12T22:05:25.219Z,6.88
2023-02-12T22:10:27.757Z,7.18
2023-02-12T22:15:29.130Z,6.75
2023-02-12T22:20:30.492Z,7.03
2023-02-12T22:25:33.395Z,7.15
2023-02-12T22:30:34.753Z,7.47
2023-02-12T22:35:36.115Z,7.07
2023-02-12T22:40:37.554Z,7.40
2023-02-12T22:45:43.563Z,7.13
2023-02-12T22:50:44.942Z,7.72
2023-02-12T22:55:46.307Z,9.25
2023-02-12T23:00:47.685Z,7.90
2023-02-12T23:05:48.998Z,7.60
2023-02-12T23:10:50.385Z,7.80
2023-02-12T23:15:51.923Z,7.13
2023-02-12T23:20:53.832Z,7.57
2023-02-12T23:25:55.544Z,8.45
2023-02-12T23:30:57.385Z,8.00
2023-02-12T23:35:59.192Z,8.13
2023-02-12T23:41:00.954Z,8.43
2023-02-12T23:46:02.473Z,7.20
2023-02-12T23:51:04.381Z,7.80
2023-02-12T23:56:06.797Z,7.47
